Observation data for Silverton on 12/07/2019      Previous  Date       Current Mesonet Observations  Soil Data  Daily Summary Page  Observations in Plain Language
KSVS 070600Z 15004KT 01/M01 A3032 RMK A01 T00131011  RH  085%=      5-min Rain = 0
KSVS 070605Z 16005KT 01/M01 A3032 RMK A01 T00111013  RH  085%=      5-min Rain = 0
KSVS 070610Z 15005KT 01/M02 A3032 RMK A01 T00101016  RH  084%=      5-min Rain = 0
KSVS 070615Z 14003KT 01/M02 A3032 RMK A01 T00061018  RH  085%=      5-min Rain = 0
KSVS 070620Z 14004KT 01/M02 A3032 RMK A01 T00071015  RH  087%=      5-min Rain = 0
KSVS 070625Z 14004KT 01/M01 A3032 RMK A01 T00081013  RH  087%=      5-min Rain = 0
KSVS 070630Z 14004KT 01/M01 A3032 RMK A01 T00081013  RH  086%=      5-min Rain = 0
KSVS 070635Z 15005KT 01/M01 A3032 RMK A01 T00091011  RH  087%=      5-min Rain = 0
KSVS 070640Z 16004KT 01/M01 A3032 RMK A01 T00141010  RH  085%=      5-min Rain = 0
KSVS 070645Z 16004KT 01/M02 A3032 RMK A01 T00081016  RH  085%=      5-min Rain = 0
KSVS 070650Z 17005KT 01/M01 A3032 RMK A01 T00091012  RH  087%=      5-min Rain = 0
KSVS 070655Z 17006KT 02/M01 A3032 RMK A01 T00151009  RH  085%=      5-min Rain = 0
KSVS 070700Z 16006KT 01/M01 A3032 RMK A01 T00141012  RH  084%=      5-min Rain = 0
KSVS 070705Z 16006KT 01/M01 A3031 RMK A01 T00121013  RH  084%=      5-min Rain = 0
KSVS 070710Z 16006KT 01/M01 A3031 RMK A01 T00131012  RH  084%=      5-min Rain = 0
KSVS 070715Z 16007KT 01/M02 A3031 RMK A01 T00101015  RH  084%=      5-min Rain = 0
KSVS 070720Z 16007KT 01/M02 A3031 RMK A01 T00061018  RH  085%=      5-min Rain = 0
KSVS 070725Z 17008KT 00/M02 A3031 RMK A01 T00041017  RH  086%=      5-min Rain = 0
KSVS 070730Z 17008KT 01/M01 A3031 RMK A01 T00091013  RH  086%=      5-min Rain = 0
KSVS 070735Z 17008KT 00/M02 A3031 RMK A01 T00041019  RH  085%=      5-min Rain = 0
KSVS 070740Z 17007KT 00/M02 A303 RMK A01 T00021018  RH  088%=      5-min Rain = 0
KSVS 070745Z 17006KT 00/02 A3031 RMK A01 T00-00-19  RH  088%=      5-min Rain = 0
KSVS 070750Z 18005KT 00/M02 A3031 RMK A01 T00011017  RH  088%=      5-min Rain = 0
KSVS 070755Z 18005KT 00/M02 A3031 RMK A01 T00031016  RH  088%=      5-min Rain = 0
KSVS 070800Z 19006KT 00/M02 A3031 RMK A01 T00031017  RH  088%=      5-min Rain = 0
KSVS 070805Z 18006KT 00/M02 A3031 RMK A01 T00031015  RH  088%=      5-min Rain = 0
KSVS 070810Z 18005KT 00/02 A3031 RMK A01 T00000-21  RH  086%=      5-min Rain = 0
KSVS 070815Z 18004KT 00/M02 A3031 RMK A01 T00011017  RH  088%=      5-min Rain = 0
KSVS 070820Z 18004KT 00/M02 A303 RMK A01 T00031016  RH  088%=      5-min Rain = 0
KSVS 070825Z 18004KT 00/M02 A303 RMK A01 T00041016  RH  087%=      5-min Rain = 0
KSVS 070830Z 18004KT 00/M02 A303 RMK A01 T00031017  RH  087%=      5-min Rain = 0
KSVS 070835Z 18004KT 00/02 A303 RMK A01 T00000-19  RH  087%=      5-min Rain = 0
KSVS 070840Z 18004KT M00/M02 A303 RMK A01 T10011019  RH  089%=      5-min Rain = 0
KSVS 070845Z 18004KT M00/M02 A303 RMK A01 T10011018  RH  089%=      5-min Rain = 0
KSVS 070850Z 18005KT M00/M02 A303 RMK A01 T10011018  RH  089%=      5-min Rain = 0
KSVS 070855Z 18005KT M00/M02 A303 RMK A01 T10021019  RH  089%=      5-min Rain = 0
KSVS 070900Z 18005KT M00/M02 A303 RMK A01 T10021019  RH  089%=      5-min Rain = 0
KSVS 070905Z 18005KT M00/M02 A3029 RMK A01 T10031019  RH  090%=      5-min Rain = 0
KSVS 070910Z 18006KT 01/M01 A3029 RMK A01 T00051011  RH  090%=      5-min Rain = 0
KSVS 070915Z 18006KT 02/M01 A3029 RMK A01 T00171005  RH  086%=      5-min Rain = 0
KSVS 070920Z 18006KT 02/M01 A303 RMK A01 T00161010  RH  084%=      5-min Rain = 0
KSVS 070925Z 19006KT 01/M01 A3029 RMK A01 T00101013  RH  086%=      5-min Rain = 0
KSVS 070930Z 19005KT 02/M01 A3029 RMK A01 T00161007  RH  086%=      5-min Rain = 0
KSVS 070935Z 19005KT 01/M01 A3029 RMK A01 T00131010  RH  086%=      5-min Rain = 0
KSVS 070940Z 20004KT 01/M01 A3029 RMK A01 T00081014  RH  086%=      5-min Rain = 0
KSVS 070945Z 21005KT 00/M02 A3029 RMK A01 T00011018  RH  088%=      5-min Rain = 0
KSVS 070950Z 21007KT M01/M02 A3029 RMK A01 T10061023  RH  088%=      5-min Rain = 0
KSVS 070955Z 21008KT M01/M02 A3029 RMK A01 T10091024  RH  090%=      5-min Rain = 0
KSVS 071000Z 20008KT M01/M02 A3029 RMK A01 T10071020  RH  091%=      5-min Rain = 0
KSVS 071005Z 20008KT M01/M02 A3029 RMK A01 T10051018  RH  092%=      5-min Rain = 0
KSVS 071010Z 19008KT 00/01 A3028 RMK A01 T00000-13  RH  091%=      5-min Rain = 0
KSVS 071015Z 19007KT 01/M01 A3028 RMK A01 T00061010  RH  090%=      5-min Rain = 0
KSVS 071020Z 18005KT 00/M02 A3028 RMK A01 T00041016  RH  087%=      5-min Rain = 0
KSVS 071025Z 17003KT 00/M02 A3028 RMK A01 T00021016  RH  089%=      5-min Rain = 0
KSVS 071030Z 16002KT M00/M02 A3028 RMK A01 T10011018  RH  089%=      5-min Rain = 0
KSVS 071035Z 15002KT M01/M02 A3028 RMK A01 T10071023  RH  090%=      5-min Rain = 0
KSVS 071040Z 16002KT M01/M02 A3028 RMK A01 T10081021  RH  092%=      5-min Rain = 0
KSVS 071045Z 18003KT M01/M02 A3028 RMK A01 T10081021  RH  092%=      5-min Rain = 0
KSVS 071050Z 18004KT M01/M02 A3028 RMK A01 T10061018  RH  093%=      5-min Rain = 0
KSVS 071055Z 17003KT M01/M02 A3028 RMK A01 T10071019  RH  092%=      5-min Rain = 0
KSVS 071100Z 17003KT 00/01 A3027 RMK A01 T00-00-11  RH  093%=      5-min Rain = 0
KSVS 071105Z 16003KT 00/M01 A3028 RMK A01 T00011013  RH  091%=      5-min Rain = 0
KSVS 071110Z 17003KT M01/M02 A3027 RMK A01 T10051020  RH  090%=      5-min Rain = 0
KSVS 071115Z 17004KT 00/01 A3027 RMK A01 T00-00-12  RH  093%=      5-min Rain = 0
KSVS 071120Z 18005KT 01/M01 A3027 RMK A01 T00061006  RH  093%=      5-min Rain = 0
KSVS 071125Z 19005KT 00/M01 A3027 RMK A01 T00011013  RH  091%=      5-min Rain = 0
KSVS 071130Z 20006KT M01/M02 A3027 RMK A01 T10071020  RH  091%=      5-min Rain = 0
KSVS 071135Z 20007KT M01/M02 A3027 RMK A01 T10121023  RH  093%=      5-min Rain = 0
KSVS 071140Z 20007KT M01/M02 A3027 RMK A01 T10111021  RH  094%=      5-min Rain = 0
KSVS 071145Z 20005KT M01/M02 A3027 RMK A01 T10091018  RH  094%=      5-min Rain = 0
KSVS 071150Z 21006KT M01/M02 A3027 RMK A01 T10091018  RH  094%=      5-min Rain = 0
KSVS 071155Z 21005KT M01/M02 A3027 RMK A01 T10091018  RH  094%=      5-min Rain = 0
KSVS 071200Z 21006KT M01/M02 A3027 RMK A01 T10091019  RH  094%=      5-min Rain = 0
KSVS 071205Z 21007KT M01/M02 A3027 RMK A01 T10121021  RH  094%=      5-min Rain = 0
KSVS 071210Z 21007KT M01/M02 A3027 RMK A01 T10131021  RH  095%=      5-min Rain = 0
KSVS 071215Z 21007KT M01/M02 A3026 RMK A01 T10141022  RH  095%=      5-min Rain = 0
KSVS 071220Z 21007KT M01/M02 A3027 RMK A01 T10141022  RH  096%=      5-min Rain = 0
KSVS 071225Z 21005KT M01/M02 A3026 RMK A01 T10131020  RH  096%=      5-min Rain = 0
KSVS 071230Z 21006KT M01/M02 A3026 RMK A01 T10131019  RH  096%=      5-min Rain = 0
KSVS 071235Z 21007KT M02/M02 A3026 RMK A01 T10151022  RH  096%=      5-min Rain = 0
KSVS 071240Z 21007KT M02/M02 A3026 RMK A01 T10171023  RH  096%=      5-min Rain = 0
KSVS 071245Z 21007KT M02/M02 A3026 RMK A01 T10161022  RH  096%=      5-min Rain = 0
KSVS 071250Z 21008KT M02/M02 A3026 RMK A01 T10151021  RH  097%=      5-min Rain = 0
KSVS 071255Z 20008KT M01/M02 A3026 RMK A01 T10131019  RH  097%=      5-min Rain = 0
KSVS 071300Z 21008KT M01/M02 A3026 RMK A01 T10121018  RH  096%=      5-min Rain = 0
KSVS 071305Z 21008KT M01/M02 A3027 RMK A01 T10101016  RH  096%=      5-min Rain = 0
KSVS 071310Z 20008KT M01/M01 A3027 RMK A01 T10071013  RH  096%=      5-min Rain = 0
KSVS 071315Z 20008KT M01/M01 A3026 RMK A01 T10061013  RH  096%=      5-min Rain = 0
KSVS 071320Z 20009KT M00/M01 A3026 RMK A01 T10041012  RH  096%=      5-min Rain = 0
KSVS 071325Z 20009KT M00/M01 A3026 RMK A01 T10031011  RH  095%=      5-min Rain = 0
KSVS 071330Z 20009KT M00/M01 A3026 RMK A01 T10041012  RH  095%=      5-min Rain = 0
KSVS 071335Z 20008KT M00/M01 A3026 RMK A01 T10021010  RH  095%=      5-min Rain = 0
KSVS 071340Z 20008KT M00/M01 A3026 RMK A01 T10011010  RH  095%=      5-min Rain = 0
KSVS 071345Z 19009KT 00/01 A3026 RMK A01 T00-000-9  RH  095%=      5-min Rain = 0
KSVS 071350Z 19008KT 00/M01 A3026 RMK A01 T00021008  RH  094%=      5-min Rain = 0
KSVS 071355Z 20008KT 00/01 A3026 RMK A01 T00-00-10  RH  094%=      5-min Rain = 0
KSVS 071400Z 20008KT M00/M01 A3026 RMK A01 T10011010  RH  095%=      5-min Rain = 0
KSVS 071405Z 20008KT M00/M01 A3026 RMK A01 T10011009  RH  095%=      5-min Rain = 0
KSVS 071410Z 19008KT 00/M01 A3026 RMK A01 T00021006  RH  095%=      5-min Rain = 0
KSVS 071415Z 19007KT 01/M00 A3026 RMK A01 T00051003  RH  095%=      5-min Rain = 0
KSVS 071420Z 19007KT 01/M00 A3026 RMK A01 T00061004  RH  094%=      5-min Rain = 0
KSVS 071425Z 19007KT 01/M00 A3026 RMK A01 T00061004  RH  094%=      5-min Rain = 0
KSVS 071430Z 19007KT 01/M00 A3026 RMK A01 T00091001  RH  094%=      5-min Rain = 0
KSVS 071435Z 20006KT 02/00 A3026 RMK A01 T00160004  RH  093%=      5-min Rain = 0
KSVS 071440Z 19005KT 02/01 A3026 RMK A01 T00200006  RH  092%=      5-min Rain = 0
KSVS 071445Z 19004KT 03/01 A3026 RMK A01 T00250008  RH  090%=      5-min Rain = 0
KSVS 071450Z 20005KT 03/01 A3026 RMK A01 T00280009  RH  089%=      5-min Rain = 0
KSVS 071455Z 21005KT 03/01 A3026 RMK A01 T00310012  RH  089%=      5-min Rain = 0
KSVS 071500Z 20005KT 03/01 A3026 RMK A01 T00310011  RH  088%=      5-min Rain = 0
KSVS 071505Z 20004KT 04/02 A3026 RMK A01 T00360015  RH  088%=      5-min Rain = 0
KSVS 071510Z 20005KT 04/02 A3026 RMK A01 T00380015  RH  086%=      5-min Rain = 0
KSVS 071515Z 20005KT 04/02 A3026 RMK A01 T00430018  RH  085%=      5-min Rain = 0
KSVS 071520Z 20005KT 04/02 A3026 RMK A01 T00420018  RH  085%=      5-min Rain = 0
KSVS 071525Z 20005KT 05/02 A3026 RMK A01 T00460023  RH  087%=      5-min Rain = 0
KSVS 071530Z 20006KT 05/03 A3026 RMK A01 T00500025  RH  085%=      5-min Rain = 0
KSVS 071535Z 21005KT 05/03 A3026 RMK A01 T00540030  RH  086%=      5-min Rain = 0
KSVS 071540Z 20006KT 06/03 A3026 RMK A01 T00590034  RH  085%=      5-min Rain = 0
KSVS 071545Z 20008KT 07/03 A3026 RMK A01 T00680032  RH  079%=      5-min Rain = 0
KSVS 071550Z 21009KT 07/03 A3026 RMK A01 T00730029  RH  075%=      5-min Rain = 0
KSVS 071555Z 20009KT 08/03 A3026 RMK A01 T00790031  RH  073%=      5-min Rain = 0
KSVS 071600Z 20011KT 09/03 A3026 RMK A01 T00860031  RH  069%=      5-min Rain = 0
KSVS 071605Z 21010G15KT 09/03 A3026 RMK A01 T00910031  RH  067%=      5-min Rain = 0
KSVS 071610Z 21011KT 10/03 A3026 RMK A01 T00950029  RH  065%=      5-min Rain = 0
KSVS 071615Z 20013G19KT 10/03 A3025 RMK A01 T01000026  RH  061%=      5-min Rain = 0
KSVS 071620Z 20014G19KT 10/02 A3025 RMK A01 T01000022  RH  059%=      5-min Rain = 0
KSVS 071625Z 21013KT 10/02 A3025 RMK A01 T01020022  RH  059%=      5-min Rain = 0
KSVS 071630Z 21012G17KT 11/03 A3025 RMK A01 T01070025  RH  058%=      5-min Rain = 0
KSVS 071635Z 19012KT 11/02 A3025 RMK A01 T01110024  RH  056%=      5-min Rain = 0
KSVS 071640Z 19014KT 11/02 A3025 RMK A01 T01120021  RH  054%=      5-min Rain = 0
KSVS 071645Z 20013G18KT 11/02 A3025 RMK A01 T01130021  RH  054%=      5-min Rain = 0
KSVS 071650Z 19014G19KT 12/02 A3025 RMK A01 T01150018  RH  052%=      5-min Rain = 0
KSVS 071655Z 20014G19KT 12/02 A3025 RMK A01 T01170019  RH  052%=      5-min Rain = 0
KSVS 071700Z 20015KT 12/02 A3024 RMK A01 T01210019  RH  050%=      5-min Rain = 0
KSVS 071705Z 20015KT 13/02 A3024 RMK A01 T01250021  RH  050%=      5-min Rain = 0
KSVS 071710Z 20014G19KT 13/02 A3024 RMK A01 T01290020  RH  048%=      5-min Rain = 0
KSVS 071715Z 21014G19KT 13/02 A3024 RMK A01 T01300019  RH  047%=      5-min Rain = 0
KSVS 071720Z 21016KT 13/02 A3024 RMK A01 T01330018  RH  046%=      5-min Rain = 0
KSVS 071725Z 21016KT 13/02 A3023 RMK A01 T01320017  RH  046%=      5-min Rain = 0
KSVS 071730Z 21015KT 13/02 A3023 RMK A01 T01340019  RH  046%=      5-min Rain = 0
KSVS 071735Z 21015G21KT 13/02 A3022 RMK A01 T01340017  RH  046%=      5-min Rain = 0
KSVS 071740Z 20016G22KT 13/02 A3022 RMK A01 T01330016  RH  046%=      5-min Rain = 0
KSVS 071745Z 20015G21KT 13/02 A3022 RMK A01 T01340016  RH  045%=      5-min Rain = 0
KSVS 071750Z 21014KT 14/02 A3022 RMK A01 T01370017  RH  045%=      5-min Rain = 0
KSVS 071755Z 21013G18KT 14/02 A3021 RMK A01 T01380018  RH  045%=      5-min Rain = 0
KSVS 071800Z 20015G21KT 14/02 A3021 RMK A01 T01380018  RH  045%=      5-min Rain = 0
KSVS 071805Z 21016G21KT 14/02 A3021 RMK A01 T01370018  RH  045%=      5-min Rain = 0
KSVS 071810Z 21017KT 14/02 A3021 RMK A01 T01390018  RH  045%=      5-min Rain = 0
KSVS 071815Z 21015G22KT 14/02 A302 RMK A01 T01410020  RH  044%=      5-min Rain = 0
KSVS 071820Z 21016G22KT 15/02 A3019 RMK A01 T01460019  RH  043%=      5-min Rain = 0
KSVS 071825Z 21016G23KT 15/02 A3019 RMK A01 T01480019  RH  042%=      5-min Rain = 0
KSVS 071830Z 21014G21KT 15/02 A3019 RMK A01 T01500020  RH  042%=      5-min Rain = 0
KSVS 071835Z 21015G21KT 15/02 A3018 RMK A01 T01510018  RH  041%=      5-min Rain = 0
KSVS 071840Z 21014G19KT 15/02 A3018 RMK A01 T01540019  RH  041%=      5-min Rain = 0
KSVS 071845Z 20014G20KT 16/02 A3017 RMK A01 T01550019  RH  040%=      5-min Rain = 0
KSVS 071850Z 20014G21KT 15/02 A3016 RMK A01 T01540019  RH  041%=      5-min Rain = 0
KSVS 071855Z 19017G22KT 15/02 A3016 RMK A01 T01530016  RH  040%=      5-min Rain = 0
KSVS 071900Z 20015G21KT 15/02 A3015 RMK A01 T01540016  RH  040%=      5-min Rain = 0
KSVS 071905Z 20016G21KT 16/02 A3015 RMK A01 T01570015  RH  039%=      5-min Rain = 0
KSVS 071910Z 20016G21KT 16/02 A3015 RMK A01 T01570016  RH  039%=      5-min Rain = 0
KSVS 071915Z 20018G24KT 16/02 A3015 RMK A01 T01600015  RH  038%=      5-min Rain = 0
KSVS 071920Z 20018G24KT 16/01 A3014 RMK A01 T01570014  RH  039%=      5-min Rain = 0
KSVS 071925Z 21016G22KT 16/02 A3014 RMK A01 T01610015  RH  038%=      5-min Rain = 0
KSVS 071930Z 20016G23KT 16/02 A3014 RMK A01 T01620015  RH  038%=      5-min Rain = 0
KSVS 071935Z 20016KT 16/01 A3014 RMK A01 T01620014  RH  037%=      5-min Rain = 0
KSVS 071940Z 20017KT 16/01 A3013 RMK A01 T01640014  RH  037%=      5-min Rain = 0
KSVS 071945Z 20016G21KT 16/01 A3013 RMK A01 T01600014  RH  038%=      5-min Rain = 0
KSVS 071950Z 20018G23KT 16/02 A3013 RMK A01 T01590015  RH  038%=      5-min Rain = 0
KSVS 071955Z 20017G23KT 16/02 A3012 RMK A01 T01600017  RH  039%=      5-min Rain = 0
KSVS 072000Z 20016G22KT 16/02 A3012 RMK A01 T01590019  RH  039%=      5-min Rain = 0
KSVS 072005Z 20015G21KT 16/02 A3012 RMK A01 T01630020  RH  039%=      5-min Rain = 0
KSVS 072010Z 20014G20KT 17/02 A3011 RMK A01 T01650020  RH  038%=      5-min Rain = 0
KSVS 072015Z 20016G21KT 17/02 A3011 RMK A01 T01660020  RH  038%=      5-min Rain = 0
KSVS 072020Z 21015G20KT 17/02 A301 RMK A01 T01650020  RH  038%=      5-min Rain = 0
KSVS 072025Z 19016G21KT 17/02 A301 RMK A01 T01660020  RH  038%=      5-min Rain = 0
KSVS 072030Z 21016G22KT 17/02 A301 RMK A01 T01650020  RH  038%=      5-min Rain = 0
KSVS 072035Z 19016G21KT 16/02 A301 RMK A01 T01630019  RH  039%=      5-min Rain = 0
KSVS 072040Z 20015G22KT 16/02 A301 RMK A01 T01640021  RH  039%=      5-min Rain = 0
KSVS 072045Z 20015G22KT 17/02 A3009 RMK A01 T01670022  RH  038%=      5-min Rain = 0
KSVS 072050Z 20016G23KT 17/02 A3009 RMK A01 T01660021  RH  038%=      5-min Rain = 0
KSVS 072055Z 19017G23KT 16/02 A3009 RMK A01 T01640020  RH  038%=      5-min Rain = 0
KSVS 072100Z 20016G22KT 17/02 A3009 RMK A01 T01660021  RH  038%=      5-min Rain = 0
KSVS 072105Z 20015G22KT 17/02 A3009 RMK A01 T01660021  RH  038%=      5-min Rain = 0
KSVS 072110Z 20016G21KT 17/02 A3008 RMK A01 T01680021  RH  038%=      5-min Rain = 0
KSVS 072115Z 20017G22KT 17/02 A3008 RMK A01 T01680020  RH  038%=      5-min Rain = 0
KSVS 072120Z 20015G22KT 17/02 A3008 RMK A01 T01710021  RH  037%=      5-min Rain = 0
KSVS 072125Z 20015G21KT 17/02 A3008 RMK A01 T01690021  RH  038%=      5-min Rain = 0
KSVS 072130Z 19015G20KT 17/02 A3008 RMK A01 T01690021  RH  038%=      5-min Rain = 0
KSVS 072135Z 20015G21KT 17/02 A3008 RMK A01 T01710020  RH  037%=      5-min Rain = 0
KSVS 072140Z 20017G23KT 17/02 A3007 RMK A01 T01680018  RH  037%=      5-min Rain = 0
KSVS 072145Z 20013G21KT 17/02 A3007 RMK A01 T01720020  RH  037%=      5-min Rain = 0
KSVS 072150Z 19017G22KT 17/02 A3007 RMK A01 T01680020  RH  037%=      5-min Rain = 0
KSVS 072155Z 20016G23KT 17/02 A3007 RMK A01 T01670020  RH  038%=      5-min Rain = 0
KSVS 072200Z 19017G23KT 17/02 A3006 RMK A01 T01660019  RH  038%=      5-min Rain = 0
KSVS 072205Z 19016G21KT 17/02 A3006 RMK A01 T01650020  RH  038%=      5-min Rain = 0
KSVS 072210Z 20018G25KT 17/02 A3006 RMK A01 T01650020  RH  038%=      5-min Rain = 0
KSVS 072215Z 20017G24KT 17/02 A3007 RMK A01 T01660020  RH  038%=      5-min Rain = 0
KSVS 072220Z 20014G20KT 17/02 A3007 RMK A01 T01650021  RH  038%=      5-min Rain = 0
KSVS 072225Z 20014G21KT 16/02 A3007 RMK A01 T01620020  RH  039%=      5-min Rain = 0
KSVS 072230Z 20014G20KT 16/02 A3006 RMK A01 T01570020  RH  040%=      5-min Rain = 0
KSVS 072235Z 20014G21KT 16/02 A3006 RMK A01 T01560020  RH  041%=      5-min Rain = 0
KSVS 072240Z 20014KT 16/02 A3006 RMK A01 T01560020  RH  040%=      5-min Rain = 0
KSVS 072245Z 20015G21KT 16/02 A3006 RMK A01 T01560020  RH  041%=      5-min Rain = 0
KSVS 072250Z 19014KT 15/02 A3005 RMK A01 T01540020  RH  041%=      5-min Rain = 0
KSVS 072255Z 19013KT 15/02 A3005 RMK A01 T01520020  RH  041%=      5-min Rain = 0
KSVS 072300Z 19013G18KT 15/02 A3005 RMK A01 T01500020  RH  042%=      5-min Rain = 0
KSVS 072305Z 20012KT 15/02 A3005 RMK A01 T01470020  RH  043%=      5-min Rain = 0
KSVS 072310Z 19013KT 15/02 A3005 RMK A01 T01460020  RH  043%=      5-min Rain = 0
KSVS 072315Z 19011KT 14/02 A3005 RMK A01 T01430020  RH  044%=      5-min Rain = 0
KSVS 072320Z 19011KT 14/02 A3004 RMK A01 T01400020  RH  045%=      5-min Rain = 0
KSVS 072325Z 19011G17KT 14/02 A3004 RMK A01 T01390020  RH  045%=      5-min Rain = 0
KSVS 072330Z 19012KT 14/02 A3004 RMK A01 T01380021  RH  046%=      5-min Rain = 0
KSVS 072335Z 19011KT 14/02 A3004 RMK A01 T01360021  RH  046%=      5-min Rain = 0
KSVS 072340Z 18011KT 13/02 A3004 RMK A01 T01330021  RH  047%=      5-min Rain = 0
KSVS 072345Z 18010G16KT 13/02 A3004 RMK A01 T01310020  RH  048%=      5-min Rain = 0
KSVS 072350Z 18010KT 13/02 A3003 RMK A01 T01260020  RH  049%=      5-min Rain = 0
KSVS 072355Z 18010KT 12/02 A3004 RMK A01 T01230020  RH  050%=      5-min Rain = 0
KSVS 080000Z 18009KT 12/02 A3004 RMK A01 T01200019  RH  051%=      5-min Rain = 0
KSVS 080005Z 18009KT 12/02 A3004 RMK A01 T01170020  RH  052%=      5-min Rain = 0
KSVS 080010Z 18009KT 12/02 A3004 RMK A01 T01170020  RH  052%=      5-min Rain = 0
KSVS 080015Z 18009KT 12/02 A3003 RMK A01 T01180021  RH  052%=      5-min Rain = 0
KSVS 080020Z 19009KT 12/02 A3004 RMK A01 T01200021  RH  052%=      5-min Rain = 0
KSVS 080025Z 19010KT 12/02 A3004 RMK A01 T01200021  RH  052%=      5-min Rain = 0
KSVS 080030Z 19009KT 12/02 A3004 RMK A01 T01200022  RH  052%=      5-min Rain = 0
KSVS 080035Z 19010G15KT 12/02 A3004 RMK A01 T01190022  RH  052%=      5-min Rain = 0
KSVS 080040Z 19009KT 12/02 A3004 RMK A01 T01200021  RH  052%=      5-min Rain = 0
KSVS 080045Z 19009KT 12/02 A3004 RMK A01 T01150021  RH  053%=      5-min Rain = 0
KSVS 080050Z 18009KT 11/02 A3004 RMK A01 T01100020  RH  054%=      5-min Rain = 0
KSVS 080055Z 18008KT 11/02 A3003 RMK A01 T01050019  RH  056%=      5-min Rain = 0
KSVS 080100Z 18008KT 10/02 A3003 RMK A01 T01010018  RH  057%=      5-min Rain = 0
KSVS 080105Z 18009KT 10/02 A3003 RMK A01 T01020019  RH  057%=      5-min Rain = 0
KSVS 080110Z 18009KT 10/02 A3003 RMK A01 T01030020  RH  057%=      5-min Rain = 0
KSVS 080115Z 18010KT 10/02 A3003 RMK A01 T01040020  RH  057%=      5-min Rain = 0
KSVS 080120Z 18010KT 11/02 A3003 RMK A01 T01050021  RH  057%=      5-min Rain = 0
KSVS 080125Z 19010KT 11/02 A3003 RMK A01 T01060022  RH  057%=      5-min Rain = 0
KSVS 080130Z 18011KT 11/02 A3003 RMK A01 T01060022  RH  057%=      5-min Rain = 0
KSVS 080135Z 19010KT 11/02 A3003 RMK A01 T01070022  RH  056%=      5-min Rain = 0
KSVS 080140Z 19010KT 11/02 A3003 RMK A01 T01070022  RH  056%=      5-min Rain = 0
KSVS 080145Z 18010KT 11/02 A3003 RMK A01 T01070022  RH  057%=      5-min Rain = 0
KSVS 080150Z 19010G15KT 11/02 A3003 RMK A01 T01060022  RH  057%=      5-min Rain = 0
KSVS 080155Z 19010KT 11/02 A3003 RMK A01 T01050022  RH  057%=      5-min Rain = 0
KSVS 080200Z 19010KT 11/02 A3002 RMK A01 T01050021  RH  057%=      5-min Rain = 0
KSVS 080205Z 19011KT 10/02 A3002 RMK A01 T01040021  RH  057%=      5-min Rain = 0
KSVS 080210Z 19010KT 10/02 A3002 RMK A01 T01030021  RH  058%=      5-min Rain = 0
KSVS 080215Z 19010KT 10/02 A3002 RMK A01 T01020021  RH  058%=      5-min Rain = 0
KSVS 080220Z 19009KT 10/02 A3002 RMK A01 T01010021  RH  059%=      5-min Rain = 0
KSVS 080225Z 19008KT 10/02 A3002 RMK A01 T01000021  RH  059%=      5-min Rain = 0
KSVS 080230Z 19009KT 10/02 A3002 RMK A01 T01020021  RH  058%=      5-min Rain = 0
KSVS 080235Z 19010KT 10/02 A3002 RMK A01 T01040022  RH  057%=      5-min Rain = 0
KSVS 080240Z 20009KT 11/02 A3002 RMK A01 T01060022  RH  057%=      5-min Rain = 0
KSVS 080245Z 20010KT 11/02 A3001 RMK A01 T01070022  RH  056%=      5-min Rain = 0
KSVS 080250Z 20010KT 11/02 A3001 RMK A01 T01070022  RH  056%=      5-min Rain = 0
KSVS 080255Z 20011KT 11/02 A30 RMK A01 T01090022  RH  056%=      5-min Rain = 0
KSVS 080300Z 20012KT 11/02 A30 RMK A01 T01100022  RH  055%=      5-min Rain = 0
KSVS 080305Z 20011G17KT 11/02 A30 RMK A01 T01090022  RH  056%=      5-min Rain = 0
KSVS 080310Z 20011KT 11/02 A30 RMK A01 T01050021  RH  057%=      5-min Rain = 0
KSVS 080315Z 20011KT 10/02 A30 RMK A01 T01040021  RH  057%=      5-min Rain = 0
KSVS 080320Z 21012KT 10/02 A30 RMK A01 T01030022  RH  058%=      5-min Rain = 0
KSVS 080325Z 21013KT 10/02 A2999 RMK A01 T01030022  RH  058%=      5-min Rain = 0
KSVS 080330Z 21014G19KT 10/02 A2999 RMK A01 T01030022  RH  058%=      5-min Rain = 0
KSVS 080335Z 21015KT 10/02 A2999 RMK A01 T01030022  RH  058%=      5-min Rain = 0
KSVS 080340Z 21016G22KT 10/02 A2999 RMK A01 T01040022  RH  058%=      5-min Rain = 0
KSVS 080345Z 21016G21KT 10/02 A2999 RMK A01 T01030022  RH  058%=      5-min Rain = 0
KSVS 080350Z 21016KT 10/02 A2998 RMK A01 T01000022  RH  059%=      5-min Rain = 0
KSVS 080355Z 21016KT 10/02 A2998 RMK A01 T00970021  RH  060%=      5-min Rain = 0
KSVS 080400Z 21014KT 09/02 A2998 RMK A01 T00940021  RH  061%=      5-min Rain = 0
KSVS 080405Z 21015G20KT 09/02 A2998 RMK A01 T00930021  RH  062%=      5-min Rain = 0
KSVS 080410Z 22015KT 09/02 A2998 RMK A01 T00930021  RH  062%=      5-min Rain = 0
KSVS 080415Z 22015G20KT 09/02 A2998 RMK A01 T00930022  RH  062%=      5-min Rain = 0
KSVS 080420Z 22016KT 10/02 A2998 RMK A01 T00950022  RH  061%=      5-min Rain = 0
KSVS 080425Z 22018G23KT 10/02 A2998 RMK A01 T00980022  RH  060%=      5-min Rain = 0
KSVS 080430Z 22018G23KT 10/02 A2998 RMK A01 T01000022  RH  059%=      5-min Rain = 0
KSVS 080435Z 22018G23KT 10/02 A2998 RMK A01 T01000021  RH  059%=      5-min Rain = 0
KSVS 080440Z 22018G24KT 10/02 A2998 RMK A01 T01000021  RH  059%=      5-min Rain = 0
KSVS 080445Z 22018KT 10/02 A2997 RMK A01 T00980021  RH  060%=      5-min Rain = 0
KSVS 080450Z 22018KT 10/02 A2997 RMK A01 T00980021  RH  059%=      5-min Rain = 0
KSVS 080455Z 22017KT 10/02 A2997 RMK A01 T00950020  RH  060%=      5-min Rain = 0
KSVS 080500Z 22017G22KT 09/02 A2997 RMK A01 T00940020  RH  061%=      5-min Rain = 0
KSVS 080505Z 22016G21KT 09/02 A2997 RMK A01 T00920019  RH  061%=      5-min Rain = 0
KSVS 080510Z 22016KT 09/02 A2997 RMK A01 T00910019  RH  062%=      5-min Rain = 0
KSVS 080515Z 22016G21KT 09/02 A2997 RMK A01 T00900019  RH  062%=      5-min Rain = 0
KSVS 080520Z 22017KT 09/02 A2996 RMK A01 T00900019  RH  062%=      5-min Rain = 0
KSVS 080525Z 22018KT 09/02 A2996 RMK A01 T00900019  RH  062%=      5-min Rain = 0
KSVS 080530Z 22016G21KT 09/02 A2996 RMK A01 T00890019  RH  062%=      5-min Rain = 0
KSVS 080535Z 22016KT 09/02 A2997 RMK A01 T00870018  RH  063%=      5-min Rain = 0
KSVS 080540Z 22015KT 09/02 A2997 RMK A01 T00860018  RH  063%=      5-min Rain = 0
KSVS 080545Z 22014KT 08/02 A2996 RMK A01 T00830018  RH  064%=      5-min Rain = 0
KSVS 080550Z 22014KT 08/02 A2996 RMK A01 T00820017  RH  065%=      5-min Rain = 0
KSVS 080555Z 22014KT 08/02 A2996 RMK A01 T00830018  RH  064%=      5-min Rain = 0

Page generated in 0.0092 seconds.